Cheboygan, MI

10:28 PM EST on November 21, 2014 (GMT -0500)
Cordwood Point | Change Station
CLOSE
Current Station
Personal Weather Station
Location: Cheboygan, MI
Elevation: 586 ft
Nearby Weather Stations
Active Advisory: Freezing Rain Advisory Active Notice: Public Information Statement

Elev 586 ft 45.66 °N, 84.32 °W | Updated 7 seconds ago

Partly Cloudy
Partly Cloudy
24.4 °F
Feels Like 18 °F
N
5.4
Wind Variable Wind from SW
Gusts 5.4 mph

Today
High -- | Low -- °F
--% Chance of Precip.
Yesterday
High -- | Low -- °F
Precip. -- in
7:44 AM 5:00 PM
Waning Crescent, 0% visible
Pressure 30.08 in
Visibility 10.0 miles
Clouds Mostly Cloudy 12000 ft
Windchill 18 °F
Dew Point 20 °F
Humidity 82%
Rainfall 0.00 in
Snow Depth Not available.
UV 0 out of 12
Pollen .10 out of 12
Air Quality Not available.
Flu Activity Not available.
METAR KSLH 220317Z AUTO 20011G17KT 10SM BKN120 M02/M07 A3008 RMK AO2 T10271070

More Conditions Fewer Conditions

Pressure 30.08 in
Visibility 10.0 miles
Clouds Mostly Cloudy 12000 ft
Windchill 18 °F
Dew Point 20 °F
Humidity 82%
Rainfall 0.00 in
Snow Depth Not available.
UV 0 out of 12
Pollen .10 out of 12
Air Quality Not available.
Flu Activity Not available.
METAR KSLH 220317Z AUTO 20011G17KT 10SM BKN120 M02/M07 A3008 RMK AO2 T10271070

More Conditions Fewer Conditions

Nowcast | as of 10:00 PM EST on November 21, 2014

Freezing Rain Advisory in effect from 4 am to noon EST Saturday... At 11 PM...partly cloudy. Temperature 26. Southwest winds 18 mph with gusts to 30 mph. At 1 am...mostly cloudy. Temperature 27. Southwest winds 19 mph with gusts to 30 mph. At 3 am...mostly cloudy. Temperature 29. Southwest winds 17 mph. At 5 am...cloudy. Periods of freezing drizzle. Temperature 31. Southwest winds 17 mph.

×

10-Day Weather Forecast

Almanac

Astronomy

Nov. 21, 2014 Rise Set
Actual Time
Civil Twilight
Nautical Twilight
Astronomical Twilight
Moon
Length of Visible Light
Length of Day
Tomorrow will be .
, % of the Moon is Illuminated

Today's Extremes

State Highs State Lows

Community

WunderPhotos

Upload Photos

1,772,773 photos uploaded!

WunderBlogs® & News

Nearby

Air Quality

  Air Quality AQ Index Pollutant
Not available.

Snow Depth

Station Depth Elevation

Earthquake Activity

City Distance Mag. Time & Date
Minimum magnitude displayed is 2.5.

Coastal Water Temperatures

Place Temperature

Nearby Weather Stations